Terminal Aerodrome Forecast
Issued by NWS Quad Cities IA IL

Home | Current Version | Previous Version | Text Only | Print | Product List | Glossary On
Versions: 1 2 3 4 5 6 7 8 9 10 11 12 13 14 15 16 17 18 19 20 21 22 23 24 25 26 27 28
000
FTUS43 KDVN 230402 AAB
TAFMLI
TAF AMD
KMLI 230402Z 2304/2324 19007KT P6SM BKN150
      TEMPO 2307/2309 VRB20G30KT 3SM TSRA BKN025CB
     FM230900 31011KT P6SM BKN035
     FM231400 32013G20KT P6SM SCT050=

USA.gov is the U.S. government's official web portal to all federal, state and local government web resources and services.